sensor_id;sensor_type;location;lat;lon;timestamp;P1;durP1;ratioP1;P2;durP2;ratioP2
52508;SDS011;38420;53.150;6.370;2024-03-06T00:01:39;7.20;;;3.92;;
52508;SDS011;38420;53.150;6.370;2024-03-06T00:04:04;13.90;;;4.00;;
52508;SDS011;38420;53.150;6.370;2024-03-06T00:06:30;9.65;;;3.65;;
52508;SDS011;38420;53.150;6.370;2024-03-06T00:08:56;13.65;;;5.00;;
52508;SDS011;38420;53.150;6.370;2024-03-06T00:11:22;9.40;;;4.72;;
52508;SDS011;38420;53.150;6.370;2024-03-06T00:13:47;9.40;;;5.55;;
52508;SDS011;38420;53.150;6.370;2024-03-06T00:16:13;9.50;;;4.15;;
52508;SDS011;38420;53.150;6.370;2024-03-06T00:18:39;15.70;;;6.28;;
52508;SDS011;38420;53.150;6.370;2024-03-06T00:21:05;10.18;;;4.80;;
52508;SDS011;38420;53.150;6.370;2024-03-06T00:23:31;9.55;;;3.85;;
52508;SDS011;38420;53.150;6.370;2024-03-06T00:25:57;9.35;;;4.90;;
52508;SDS011;38420;53.150;6.370;2024-03-06T00:28:23;11.18;;;5.30;;
52508;SDS011;38420;53.150;6.370;2024-03-06T00:30:49;11.43;;;4.60;;
52508;SDS011;38420;53.150;6.370;2024-03-06T00:33:14;11.57;;;4.82;;
52508;SDS011;38420;53.150;6.370;2024-03-06T00:35:40;11.07;;;5.40;;
52508;SDS011;38420;53.150;6.370;2024-03-06T00:38:06;9.32;;;5.50;;
52508;SDS011;38420;53.150;6.370;2024-03-06T00:40:31;11.20;;;5.20;;
52508;SDS011;38420;53.150;6.370;2024-03-06T00:42:57;15.48;;;5.32;;
52508;SDS011;38420;53.150;6.370;2024-03-06T00:45:23;9.65;;;4.32;;
52508;SDS011;38420;53.150;6.370;2024-03-06T00:47:49;9.77;;;5.40;;
52508;SDS011;38420;53.150;6.370;2024-03-06T00:50:15;8.50;;;4.45;;
52508;SDS011;38420;53.150;6.370;2024-03-06T00:52:42;12.20;;;5.47;;
52508;SDS011;38420;53.150;6.370;2024-03-06T00:55:08;15.30;;;5.00;;
52508;SDS011;38420;53.150;6.370;2024-03-06T00:57:35;12.98;;;5.40;;
52508;SDS011;38420;53.150;6.370;2024-03-06T01:00:01;7.10;;;4.07;;
52508;SDS011;38420;53.150;6.370;2024-03-06T01:02:31;11.90;;;5.32;;
52508;SDS011;38420;53.150;6.370;2024-03-06T01:04:56;14.02;;;6.15;;
52508;SDS011;38420;53.150;6.370;2024-03-06T01:07:22;8.80;;;4.63;;
52508;SDS011;38420;53.150;6.370;2024-03-06T01:09:48;13.63;;;5.88;;
52508;SDS011;38420;53.150;6.370;2024-03-06T01:12:13;12.52;;;5.03;;
52508;SDS011;38420;53.150;6.370;2024-03-06T01:14:39;10.13;;;5.68;;
52508;SDS011;38420;53.150;6.370;2024-03-06T01:17:04;10.77;;;4.70;;
52508;SDS011;38420;53.150;6.370;2024-03-06T01:19:31;12.57;;;4.82;;
52508;SDS011;38420;53.150;6.370;2024-03-06T01:21:56;9.40;;;4.35;;
52508;SDS011;38420;53.150;6.370;2024-03-06T01:24:22;10.18;;;5.93;;
52508;SDS011;38420;53.150;6.370;2024-03-06T01:26:48;9.10;;;4.20;;
52508;SDS011;38420;53.150;6.370;2024-03-06T01:29:13;12.05;;;4.55;;
52508;SDS011;38420;53.150;6.370;2024-03-06T01:31:39;10.18;;;4.35;;
52508;SDS011;38420;53.150;6.370;2024-03-06T01:34:04;9.95;;;4.20;;
52508;SDS011;38420;53.150;6.370;2024-03-06T01:36:30;8.30;;;3.78;;
52508;SDS011;38420;53.150;6.370;2024-03-06T01:38:55;14.93;;;3.95;;
52508;SDS011;38420;53.150;6.370;2024-03-06T01:41:21;10.00;;;4.20;;
52508;SDS011;38420;53.150;6.370;2024-03-06T01:43:47;9.30;;;3.83;;
52508;SDS011;38420;53.150;6.370;2024-03-06T01:46:12;14.32;;;5.35;;
52508;SDS011;38420;53.150;6.370;2024-03-06T01:48:38;11.07;;;4.18;;
52508;SDS011;38420;53.150;6.370;2024-03-06T01:51:04;10.52;;;4.82;;
52508;SDS011;38420;53.150;6.370;2024-03-06T01:53:31;10.27;;;4.85;;
52508;SDS011;38420;53.150;6.370;2024-03-06T01:55:58;9.73;;;4.00;;
52508;SDS011;38420;53.150;6.370;2024-03-06T01:58:24;8.85;;;4.70;;
52508;SDS011;38420;53.150;6.370;2024-03-06T02:00:51;10.13;;;4.47;;
52508;SDS011;38420;53.150;6.370;2024-03-06T02:03:18;9.23;;;4.93;;
52508;SDS011;38420;53.150;6.370;2024-03-06T02:05:44;9.05;;;4.78;;
52508;SDS011;38420;53.150;6.370;2024-03-06T02:08:10;7.55;;;4.05;;
52508;SDS011;38420;53.150;6.370;2024-03-06T02:10:36;10.35;;;3.58;;
52508;SDS011;38420;53.150;6.370;2024-03-06T02:13:01;9.50;;;4.65;;
52508;SDS011;38420;53.150;6.370;2024-03-06T02:15:27;10.15;;;4.03;;
52508;SDS011;38420;53.150;6.370;2024-03-06T02:17:52;11.32;;;3.95;;
52508;SDS011;38420;53.150;6.370;2024-03-06T02:20:24;10.00;;;5.18;;
52508;SDS011;38420;53.150;6.370;2024-03-06T02:22:50;13.50;;;5.50;;
52508;SDS011;38420;53.150;6.370;2024-03-06T02:25:16;10.30;;;5.57;;
52508;SDS011;38420;53.150;6.370;2024-03-06T02:27:42;12.07;;;4.88;;
52508;SDS011;38420;53.150;6.370;2024-03-06T02:30:08;12.13;;;6.35;;
52508;SDS011;38420;53.150;6.370;2024-03-06T02:32:34;10.55;;;5.00;;
52508;SDS011;38420;53.150;6.370;2024-03-06T02:35:00;10.32;;;4.60;;
52508;SDS011;38420;53.150;6.370;2024-03-06T02:37:28;11.88;;;5.63;;
52508;SDS011;38420;53.150;6.370;2024-03-06T02:39:53;10.82;;;4.78;;
52508;SDS011;38420;53.150;6.370;2024-03-06T02:42:19;14.27;;;6.60;;
52508;SDS011;38420;53.150;6.370;2024-03-06T02:44:45;14.23;;;5.97;;
52508;SDS011;38420;53.150;6.370;2024-03-06T02:47:10;13.15;;;5.75;;
52508;SDS011;38420;53.150;6.370;2024-03-06T02:49:36;13.68;;;5.32;;
52508;SDS011;38420;53.150;6.370;2024-03-06T02:52:01;10.45;;;5.50;;
52508;SDS011;38420;53.150;6.370;2024-03-06T02:54:27;12.10;;;5.35;;
52508;SDS011;38420;53.150;6.370;2024-03-06T02:56:53;12.73;;;5.28;;
52508;SDS011;38420;53.150;6.370;2024-03-06T02:59:18;11.15;;;5.03;;
52508;SDS011;38420;53.150;6.370;2024-03-06T03:01:44;10.82;;;5.45;;
52508;SDS011;38420;53.150;6.370;2024-03-06T03:04:10;9.77;;;4.90;;
52508;SDS011;38420;53.150;6.370;2024-03-06T03:06:36;9.77;;;5.85;;
52508;SDS011;38420;53.150;6.370;2024-03-06T03:09:01;9.93;;;5.45;;
52508;SDS011;38420;53.150;6.370;2024-03-06T03:11:28;14.90;;;6.00;;
52508;SDS011;38420;53.150;6.370;2024-03-06T03:13:55;14.48;;;6.20;;
52508;SDS011;38420;53.150;6.370;2024-03-06T03:16:20;13.30;;;5.50;;
52508;SDS011;38420;53.150;6.370;2024-03-06T03:18:46;14.95;;;5.65;;
52508;SDS011;38420;53.150;6.370;2024-03-06T03:21:15;14.88;;;5.97;;
52508;SDS011;38420;53.150;6.370;2024-03-06T03:23:41;10.40;;;5.35;;
52508;SDS011;38420;53.150;6.370;2024-03-06T03:26:09;9.60;;;5.28;;
52508;SDS011;38420;53.150;6.370;2024-03-06T03:28:37;12.35;;;5.30;;
52508;SDS011;38420;53.150;6.370;2024-03-06T03:31:08;16.88;;;5.78;;
52508;SDS011;38420;53.150;6.370;2024-03-06T03:33:35;13.40;;;5.90;;
52508;SDS011;38420;53.150;6.370;2024-03-06T03:36:04;14.25;;;6.32;;
52508;SDS011;38420;53.150;6.370;2024-03-06T03:38:32;16.05;;;5.65;;
52508;SDS011;38420;53.150;6.370;2024-03-06T03:40:58;12.80;;;5.53;;
52508;SDS011;38420;53.150;6.370;2024-03-06T03:43:23;15.15;;;6.47;;
52508;SDS011;38420;53.150;6.370;2024-03-06T03:45:49;12.15;;;5.53;;
52508;SDS011;38420;53.150;6.370;2024-03-06T03:48:15;14.70;;;6.45;;
52508;SDS011;38420;53.150;6.370;2024-03-06T03:50:40;14.50;;;5.80;;
52508;SDS011;38420;53.150;6.370;2024-03-06T03:53:06;13.60;;;5.90;;
52508;SDS011;38420;53.150;6.370;2024-03-06T03:55:31;13.15;;;5.45;;
52508;SDS011;38420;53.150;6.370;2024-03-06T03:57:57;13.27;;;5.90;;
52508;SDS011;38420;53.150;6.370;2024-03-06T04:00:22;15.68;;;5.93;;
52508;SDS011;38420;53.150;6.370;2024-03-06T04:02:48;10.55;;;5.40;;
52508;SDS011;38420;53.150;6.370;2024-03-06T04:05:14;15.38;;;6.63;;
52508;SDS011;38420;53.150;6.370;2024-03-06T04:07:39;14.32;;;5.90;;
52508;SDS011;38420;53.150;6.370;2024-03-06T04:10:05;11.95;;;5.72;;
52508;SDS011;38420;53.150;6.370;2024-03-06T04:12:32;16.45;;;6.07;;
52508;SDS011;38420;53.150;6.370;2024-03-06T04:14:57;13.98;;;6.63;;
52508;SDS011;38420;53.150;6.370;2024-03-06T04:17:23;16.05;;;6.22;;
52508;SDS011;38420;53.150;6.370;2024-03-06T04:19:50;14.55;;;6.65;;
52508;SDS011;38420;53.150;6.370;2024-03-06T04:22:18;17.98;;;6.30;;
52508;SDS011;38420;53.150;6.370;2024-03-06T04:24:44;15.40;;;6.03;;
52508;SDS011;38420;53.150;6.370;2024-03-06T04:27:10;17.30;;;7.07;;
52508;SDS011;38420;53.150;6.370;2024-03-06T04:29:35;15.25;;;6.28;;
52508;SDS011;38420;53.150;6.370;2024-03-06T04:32:01;11.00;;;5.47;;
52508;SDS011;38420;53.150;6.370;2024-03-06T04:34:26;17.67;;;5.63;;
52508;SDS011;38420;53.150;6.370;2024-03-06T04:36:52;17.70;;;6.95;;
52508;SDS011;38420;53.150;6.370;2024-03-06T04:39:18;11.27;;;5.93;;
52508;SDS011;38420;53.150;6.370;2024-03-06T04:41:43;13.02;;;7.10;;
52508;SDS011;38420;53.150;6.370;2024-03-06T04:44:09;11.95;;;5.70;;
52508;SDS011;38420;53.150;6.370;2024-03-06T04:46:34;13.07;;;5.78;;
52508;SDS011;38420;53.150;6.370;2024-03-06T04:49:00;14.68;;;6.03;;
52508;SDS011;38420;53.150;6.370;2024-03-06T04:51:26;14.30;;;5.65;;
52508;SDS011;38420;53.150;6.370;2024-03-06T04:53:51;12.90;;;5.60;;
52508;SDS011;38420;53.150;6.370;2024-03-06T04:56:17;12.95;;;5.30;;
52508;SDS011;38420;53.150;6.370;2024-03-06T04:58:44;15.02;;;6.03;;
52508;SDS011;38420;53.150;6.370;2024-03-06T05:01:11;16.52;;;6.75;;
52508;SDS011;38420;53.150;6.370;2024-03-06T05:03:37;14.13;;;5.45;;
52508;SDS011;38420;53.150;6.370;2024-03-06T05:06:03;15.73;;;6.78;;
52508;SDS011;38420;53.150;6.370;2024-03-06T05:08:32;16.05;;;7.40;;
52508;SDS011;38420;53.150;6.370;2024-03-06T05:11:01;14.07;;;7.35;;
52508;SDS011;38420;53.150;6.370;2024-03-06T05:13:27;15.85;;;7.25;;
52508;SDS011;38420;53.150;6.370;2024-03-06T05:15:53;14.27;;;6.20;;
52508;SDS011;38420;53.150;6.370;2024-03-06T05:18:19;10.07;;;5.55;;
52508;SDS011;38420;53.150;6.370;2024-03-06T05:20:45;14.73;;;6.72;;
52508;SDS011;38420;53.150;6.370;2024-03-06T05:23:11;13.93;;;6.93;;
52508;SDS011;38420;53.150;6.370;2024-03-06T05:25:37;14.82;;;7.63;;
52508;SDS011;38420;53.150;6.370;2024-03-06T05:28:03;13.52;;;6.13;;
52508;SDS011;38420;53.150;6.370;2024-03-06T05:30:29;12.73;;;6.50;;
52508;SDS011;38420;53.150;6.370;2024-03-06T05:32:55;17.25;;;7.53;;
52508;SDS011;38420;53.150;6.370;2024-03-06T05:35:21;18.35;;;5.90;;
52508;SDS011;38420;53.150;6.370;2024-03-06T05:37:47;17.33;;;6.57;;
52508;SDS011;38420;53.150;6.370;2024-03-06T05:40:12;16.10;;;7.80;;
52508;SDS011;38420;53.150;6.370;2024-03-06T05:42:38;14.82;;;6.97;;
52508;SDS011;38420;53.150;6.370;2024-03-06T05:45:04;17.00;;;7.30;;
52508;SDS011;38420;53.150;6.370;2024-03-06T05:47:31;16.17;;;7.05;;
52508;SDS011;38420;53.150;6.370;2024-03-06T05:49:57;15.85;;;8.02;;
52508;SDS011;38420;53.150;6.370;2024-03-06T05:52:23;15.23;;;7.45;;
52508;SDS011;38420;53.150;6.370;2024-03-06T05:54:49;16.17;;;6.70;;
52508;SDS011;38420;53.150;6.370;2024-03-06T05:57:15;13.93;;;7.07;;
52508;SDS011;38420;53.150;6.370;2024-03-06T05:59:41;17.13;;;8.18;;
52508;SDS011;38420;53.150;6.370;2024-03-06T06:02:07;16.40;;;8.23;;
52508;SDS011;38420;53.150;6.370;2024-03-06T06:04:32;15.25;;;7.82;;
52508;SDS011;38420;53.150;6.370;2024-03-06T06:06:58;17.17;;;7.20;;
52508;SDS011;38420;53.150;6.370;2024-03-06T06:09:24;14.48;;;7.47;;
52508;SDS011;38420;53.150;6.370;2024-03-06T06:11:49;17.38;;;8.23;;
52508;SDS011;38420;53.150;6.370;2024-03-06T06:14:15;17.80;;;7.95;;
52508;SDS011;38420;53.150;6.370;2024-03-06T06:16:41;14.82;;;6.97;;
52508;SDS011;38420;53.150;6.370;2024-03-06T06:19:07;10.00;;;5.80;;
52508;SDS011;38420;53.150;6.370;2024-03-06T06:21:33;10.52;;;5.18;;
52508;SDS011;38420;53.150;6.370;2024-03-06T06:24:00;10.90;;;7.05;;
52508;SDS011;38420;53.150;6.370;2024-03-06T06:26:29;20.60;;;6.78;;
52508;SDS011;38420;53.150;6.370;2024-03-06T06:28:56;12.60;;;6.82;;
52508;SDS011;38420;53.150;6.370;2024-03-06T06:31:22;13.82;;;5.45;;
52508;SDS011;38420;53.150;6.370;2024-03-06T06:33:50;12.73;;;6.10;;
52508;SDS011;38420;53.150;6.370;2024-03-06T06:36:16;12.45;;;4.75;;
52508;SDS011;38420;53.150;6.370;2024-03-06T06:38:42;14.23;;;5.32;;
52508;SDS011;38420;53.150;6.370;2024-03-06T06:41:09;11.48;;;6.20;;
52508;SDS011;38420;53.150;6.370;2024-03-06T06:43:38;11.98;;;5.03;;
52508;SDS011;38420;53.150;6.370;2024-03-06T06:46:05;12.57;;;5.10;;
52508;SDS011;38420;53.150;6.370;2024-03-06T06:48:31;10.63;;;5.00;;
52508;SDS011;38420;53.150;6.370;2024-03-06T06:50:58;13.65;;;5.97;;
52508;SDS011;38420;53.150;6.370;2024-03-06T06:53:25;14.20;;;7.20;;
52508;SDS011;38420;53.150;6.370;2024-03-06T06:55:51;9.23;;;5.28;;
52508;SDS011;38420;53.150;6.370;2024-03-06T06:58:17;15.52;;;6.63;;
52508;SDS011;38420;53.150;6.370;2024-03-06T07:00:43;16.17;;;6.53;;
52508;SDS011;38420;53.150;6.370;2024-03-06T07:03:08;11.93;;;5.00;;
52508;SDS011;38420;53.150;6.370;2024-03-06T07:05:34;14.35;;;5.47;;
52508;SDS011;38420;53.150;6.370;2024-03-06T07:07:59;10.40;;;5.57;;
52508;SDS011;38420;53.150;6.370;2024-03-06T07:10:25;10.77;;;4.70;;
52508;SDS011;38420;53.150;6.370;2024-03-06T07:12:51;11.60;;;5.93;;
52508;SDS011;38420;53.150;6.370;2024-03-06T07:15:17;7.45;;;4.50;;
52508;SDS011;38420;53.150;6.370;2024-03-06T07:17:42;12.65;;;5.03;;
52508;SDS011;38420;53.150;6.370;2024-03-06T07:20:08;16.27;;;6.93;;
52508;SDS011;38420;53.150;6.370;2024-03-06T07:22:35;15.18;;;5.82;;
52508;SDS011;38420;53.150;6.370;2024-03-06T07:25:01;10.00;;;4.88;;
52508;SDS011;38420;53.150;6.370;2024-03-06T07:27:27;17.65;;;6.32;;
52508;SDS011;38420;53.150;6.370;2024-03-06T07:29:53;13.18;;;4.78;;
52508;SDS011;38420;53.150;6.370;2024-03-06T07:32:19;13.20;;;6.35;;
52508;SDS011;38420;53.150;6.370;2024-03-06T07:34:44;16.40;;;7.95;;
52508;SDS011;38420;53.150;6.370;2024-03-06T07:37:10;13.18;;;6.63;;
52508;SDS011;38420;53.150;6.370;2024-03-06T07:39:36;17.20;;;7.60;;
52508;SDS011;38420;53.150;6.370;2024-03-06T07:42:01;13.57;;;7.00;;
52508;SDS011;38420;53.150;6.370;2024-03-06T07:44:27;18.42;;;7.40;;
52508;SDS011;38420;53.150;6.370;2024-03-06T07:46:53;15.07;;;6.70;;
52508;SDS011;38420;53.150;6.370;2024-03-06T07:49:19;14.80;;;6.00;;
52508;SDS011;38420;53.150;6.370;2024-03-06T07:51:46;14.27;;;6.72;;
52508;SDS011;38420;53.150;6.370;2024-03-06T07:54:13;11.77;;;5.85;;
52508;SDS011;38420;53.150;6.370;2024-03-06T07:56:38;15.20;;;7.22;;
52508;SDS011;38420;53.150;6.370;2024-03-06T07:59:04;14.00;;;7.05;;
52508;SDS011;38420;53.150;6.370;2024-03-06T08:01:33;13.75;;;6.80;;
52508;SDS011;38420;53.150;6.370;2024-03-06T08:03:58;13.25;;;6.03;;
52508;SDS011;38420;53.150;6.370;2024-03-06T08:06:24;16.60;;;7.22;;
52508;SDS011;38420;53.150;6.370;2024-03-06T08:08:50;14.23;;;6.28;;
52508;SDS011;38420;53.150;6.370;2024-03-06T08:11:17;21.83;;;7.82;;
52508;SDS011;38420;53.150;6.370;2024-03-06T08:13:43;10.95;;;6.32;;
52508;SDS011;38420;53.150;6.370;2024-03-06T08:16:08;15.07;;;8.13;;
52508;SDS011;38420;53.150;6.370;2024-03-06T08:18:34;14.32;;;7.55;;
52508;SDS011;38420;53.150;6.370;2024-03-06T08:21:01;14.50;;;7.63;;
52508;SDS011;38420;53.150;6.370;2024-03-06T08:23:29;12.88;;;6.20;;
52508;SDS011;38420;53.150;6.370;2024-03-06T08:25:55;12.40;;;6.38;;
52508;SDS011;38420;53.150;6.370;2024-03-06T08:28:21;19.50;;;9.45;;
52508;SDS011;38420;53.150;6.370;2024-03-06T08:30:46;16.95;;;7.80;;
52508;SDS011;38420;53.150;6.370;2024-03-06T08:33:12;16.42;;;7.50;;
52508;SDS011;38420;53.150;6.370;2024-03-06T08:35:39;17.27;;;7.38;;
52508;SDS011;38420;53.150;6.370;2024-03-06T08:38:05;16.70;;;7.35;;
52508;SDS011;38420;53.150;6.370;2024-03-06T08:40:31;19.27;;;8.15;;
52508;SDS011;38420;53.150;6.370;2024-03-06T08:42:57;16.95;;;7.97;;
52508;SDS011;38420;53.150;6.370;2024-03-06T08:45:23;15.30;;;6.78;;
52508;SDS011;38420;53.150;6.370;2024-03-06T08:47:49;17.60;;;6.53;;
52508;SDS011;38420;53.150;6.370;2024-03-06T08:50:15;19.33;;;8.30;;
52508;SDS011;38420;53.150;6.370;2024-03-06T08:52:41;13.88;;;7.00;;
52508;SDS011;38420;53.150;6.370;2024-03-06T08:55:07;15.05;;;7.78;;
52508;SDS011;38420;53.150;6.370;2024-03-06T08:57:36;16.25;;;8.75;;
52508;SDS011;38420;53.150;6.370;2024-03-06T09:00:02;20.30;;;9.07;;
52508;SDS011;38420;53.150;6.370;2024-03-06T09:02:29;19.45;;;7.38;;
52508;SDS011;38420;53.150;6.370;2024-03-06T09:04:55;21.70;;;7.93;;
52508;SDS011;38420;53.150;6.370;2024-03-06T09:07:21;16.15;;;7.75;;
52508;SDS011;38420;53.150;6.370;2024-03-06T09:09:48;16.05;;;8.35;;
52508;SDS011;38420;53.150;6.370;2024-03-06T09:12:15;18.75;;;6.60;;
52508;SDS011;38420;53.150;6.370;2024-03-06T09:14:40;15.07;;;7.88;;
52508;SDS011;38420;53.150;6.370;2024-03-06T09:17:06;18.52;;;7.32;;
52508;SDS011;38420;53.150;6.370;2024-03-06T09:19:34;16.17;;;7.88;;
52508;SDS011;38420;53.150;6.370;2024-03-06T09:22:00;18.50;;;7.65;;
52508;SDS011;38420;53.150;6.370;2024-03-06T09:24:26;20.20;;;7.78;;
52508;SDS011;38420;53.150;6.370;2024-03-06T09:26:52;17.67;;;8.60;;
52508;SDS011;38420;53.150;6.370;2024-03-06T09:29:18;22.75;;;7.72;;
52508;SDS011;38420;53.150;6.370;2024-03-06T09:31:44;22.55;;;7.82;;
52508;SDS011;38420;53.150;6.370;2024-03-06T09:34:10;17.30;;;8.77;;
52508;SDS011;38420;53.150;6.370;2024-03-06T09:36:37;14.30;;;7.10;;
52508;SDS011;38420;53.150;6.370;2024-03-06T09:39:10;21.70;;;8.07;;
52508;SDS011;38420;53.150;6.370;2024-03-06T09:41:42;19.48;;;9.25;;
52508;SDS011;38420;53.150;6.370;2024-03-06T09:44:11;12.73;;;7.30;;
52508;SDS011;38420;53.150;6.370;2024-03-06T09:46:38;19.60;;;8.30;;
52508;SDS011;38420;53.150;6.370;2024-03-06T09:49:07;14.65;;;7.00;;
52508;SDS011;38420;53.150;6.370;2024-03-06T09:51:34;18.15;;;7.85;;
52508;SDS011;38420;53.150;6.370;2024-03-06T09:54:00;20.58;;;8.75;;
52508;SDS011;38420;53.150;6.370;2024-03-06T09:56:27;18.65;;;8.15;;
52508;SDS011;38420;53.150;6.370;2024-03-06T09:58:53;14.13;;;6.57;;
52508;SDS011;38420;53.150;6.370;2024-03-06T10:01:19;17.35;;;8.25;;
52508;SDS011;38420;53.150;6.370;2024-03-06T10:03:45;14.02;;;6.22;;
52508;SDS011;38420;53.150;6.370;2024-03-06T10:06:11;13.45;;;7.45;;
52508;SDS011;38420;53.150;6.370;2024-03-06T10:08:41;15.50;;;6.72;;
52508;SDS011;38420;53.150;6.370;2024-03-06T10:11:07;12.18;;;7.57;;
52508;SDS011;38420;53.150;6.370;2024-03-06T10:13:33;14.48;;;6.47;;
52508;SDS011;38420;53.150;6.370;2024-03-06T10:16:02;14.20;;;7.43;;
52508;SDS011;38420;53.150;6.370;2024-03-06T10:18:29;13.95;;;5.93;;
52508;SDS011;38420;53.150;6.370;2024-03-06T10:20:56;13.93;;;6.78;;
52508;SDS011;38420;53.150;6.370;2024-03-06T10:23:22;16.10;;;6.80;;
52508;SDS011;38420;53.150;6.370;2024-03-06T10:25:49;11.98;;;6.95;;
52508;SDS011;38420;53.150;6.370;2024-03-06T10:28:18;15.45;;;7.07;;
52508;SDS011;38420;53.150;6.370;2024-03-06T10:30:45;15.73;;;7.22;;
52508;SDS011;38420;53.150;6.370;2024-03-06T10:33:14;12.52;;;7.40;;
52508;SDS011;38420;53.150;6.370;2024-03-06T10:35:41;13.20;;;6.27;;
52508;SDS011;38420;53.150;6.370;2024-03-06T10:38:08;11.65;;;7.20;;
52508;SDS011;38420;53.150;6.370;2024-03-06T10:40:45;22.10;;;7.22;;
52508;SDS011;38420;53.150;6.370;2024-03-06T10:43:10;15.10;;;6.78;;
52508;SDS011;38420;53.150;6.370;2024-03-06T10:48:05;16.38;;;7.25;;
52508;SDS011;38420;53.150;6.370;2024-03-06T10:50:32;21.13;;;6.70;;
52508;SDS011;38420;53.150;6.370;2024-03-06T10:52:59;17.35;;;7.68;;
52508;SDS011;38420;53.150;6.370;2024-03-06T10:55:25;22.95;;;7.90;;
52508;SDS011;38420;53.150;6.370;2024-03-06T10:57:54;21.15;;;8.68;;
52508;SDS011;38420;53.150;6.370;2024-03-06T11:00:22;24.63;;;8.27;;
52508;SDS011;38420;53.150;6.370;2024-03-06T11:02:49;16.60;;;7.22;;
52508;SDS011;38420;53.150;6.370;2024-03-06T11:05:18;15.75;;;6.57;;
52508;SDS011;38420;53.150;6.370;2024-03-06T11:07:43;20.92;;;9.02;;
52508;SDS011;38420;53.150;6.370;2024-03-06T11:10:09;17.77;;;8.05;;
52508;SDS011;38420;53.150;6.370;2024-03-06T11:12:41;17.38;;;8.32;;
52508;SDS011;38420;53.150;6.370;2024-03-06T11:15:13;19.85;;;7.90;;
52508;SDS011;38420;53.150;6.370;2024-03-06T11:17:41;19.67;;;9.50;;
52508;SDS011;38420;53.150;6.370;2024-03-06T11:20:08;17.35;;;8.68;;
52508;SDS011;38420;53.150;6.370;2024-03-06T11:28:23;18.70;;;9.25;;
52508;SDS011;38420;53.150;6.370;2024-03-06T11:33:26;18.00;;;9.27;;
52508;SDS011;38420;53.150;6.370;2024-03-06T11:38:50;15.90;;;8.15;;
52508;SDS011;38420;53.150;6.370;2024-03-06T11:41:18;21.05;;;8.45;;
52508;SDS011;38420;53.150;6.370;2024-03-06T11:43:44;18.23;;;7.25;;
52508;SDS011;38420;53.150;6.370;2024-03-06T11:46:11;22.85;;;8.10;;
52508;SDS011;38420;53.150;6.370;2024-03-06T11:48:37;20.70;;;7.78;;
52508;SDS011;38420;53.150;6.370;2024-03-06T11:51:04;18.38;;;8.70;;
52508;SDS011;38420;53.150;6.370;2024-03-06T11:53:30;19.65;;;9.25;;
52508;SDS011;38420;53.150;6.370;2024-03-06T11:55:58;19.15;;;8.25;;
52508;SDS011;38420;53.150;6.370;2024-03-06T11:58:24;14.48;;;7.97;;
52508;SDS011;38420;53.150;6.370;2024-03-06T12:00:50;18.33;;;8.88;;
52508;SDS011;38420;53.150;6.370;2024-03-06T12:03:17;20.85;;;9.20;;
52508;SDS011;38420;53.150;6.370;2024-03-06T12:05:44;18.83;;;8.52;;
52508;SDS011;38420;53.150;6.370;2024-03-06T12:08:10;22.48;;;10.18;;
52508;SDS011;38420;53.150;6.370;2024-03-06T12:10:37;18.27;;;7.93;;
52508;SDS011;38420;53.150;6.370;2024-03-06T12:13:04;16.92;;;8.90;;
52508;SDS011;38420;53.150;6.370;2024-03-06T12:15:30;22.23;;;8.48;;
52508;SDS011;38420;53.150;6.370;2024-03-06T12:17:55;18.35;;;8.02;;
52508;SDS011;38420;53.150;6.370;2024-03-06T12:20:21;20.73;;;10.60;;
52508;SDS011;38420;53.150;6.370;2024-03-06T12:22:49;24.48;;;8.90;;
52508;SDS011;38420;53.150;6.370;2024-03-06T12:25:23;21.33;;;9.15;;
52508;SDS011;38420;53.150;6.370;2024-03-06T12:27:50;18.70;;;8.57;;
52508;SDS011;38420;53.150;6.370;2024-03-06T12:30:20;17.35;;;8.77;;
52508;SDS011;38420;53.150;6.370;2024-03-06T12:32:57;15.73;;;8.30;;
52508;SDS011;38420;53.150;6.370;2024-03-06T12:35:26;17.67;;;8.82;;
52508;SDS011;38420;53.150;6.370;2024-03-06T12:37:52;25.95;;;9.70;;
52508;SDS011;38420;53.150;6.370;2024-03-06T12:40:18;22.17;;;9.90;;
52508;SDS011;38420;53.150;6.370;2024-03-06T12:42:44;21.17;;;10.93;;
52508;SDS011;38420;53.150;6.370;2024-03-06T12:45:11;21.05;;;9.23;;
52508;SDS011;38420;53.150;6.370;2024-03-06T12:47:40;28.35;;;12.48;;
52508;SDS011;38420;53.150;6.370;2024-03-06T12:50:07;23.48;;;10.73;;
52508;SDS011;38420;53.150;6.370;2024-03-06T12:52:39;24.25;;;12.32;;
52508;SDS011;38420;53.150;6.370;2024-03-06T12:55:06;22.77;;;13.48;;
52508;SDS011;38420;53.150;6.370;2024-03-06T12:57:32;24.73;;;11.45;;
52508;SDS011;38420;53.150;6.370;2024-03-06T12:59:58;23.55;;;10.80;;
52508;SDS011;38420;53.150;6.370;2024-03-06T13:02:24;25.60;;;12.18;;
52508;SDS011;38420;53.150;6.370;2024-03-06T13:04:50;22.42;;;10.48;;
52508;SDS011;38420;53.150;6.370;2024-03-06T13:07:16;23.75;;;11.60;;
52508;SDS011;38420;53.150;6.370;2024-03-06T13:09:41;22.75;;;11.77;;
52508;SDS011;38420;53.150;6.370;2024-03-06T13:12:07;28.25;;;13.90;;
52508;SDS011;38420;53.150;6.370;2024-03-06T13:14:33;23.67;;;12.48;;
52508;SDS011;38420;53.150;6.370;2024-03-06T13:16:59;30.00;;;12.85;;
52508;SDS011;38420;53.150;6.370;2024-03-06T13:19:25;25.70;;;12.95;;
52508;SDS011;38420;53.150;6.370;2024-03-06T13:21:51;29.15;;;13.20;;
52508;SDS011;38420;53.150;6.370;2024-03-06T13:24:17;30.10;;;13.02;;
52508;SDS011;38420;53.150;6.370;2024-03-06T13:26:44;20.75;;;11.50;;
52508;SDS011;38420;53.150;6.370;2024-03-06T13:29:11;19.10;;;10.25;;
52508;SDS011;38420;53.150;6.370;2024-03-06T13:31:36;27.52;;;12.23;;
52508;SDS011;38420;53.150;6.370;2024-03-06T13:34:03;31.42;;;13.35;;
52508;SDS011;38420;53.150;6.370;2024-03-06T13:36:28;28.00;;;13.73;;
52508;SDS011;38420;53.150;6.370;2024-03-06T13:38:54;28.75;;;12.30;;
52508;SDS011;38420;53.150;6.370;2024-03-06T13:41:20;29.23;;;13.73;;
52508;SDS011;38420;53.150;6.370;2024-03-06T13:43:46;29.80;;;13.90;;
52508;SDS011;38420;53.150;6.370;2024-03-06T13:46:12;28.75;;;13.95;;
52508;SDS011;38420;53.150;6.370;2024-03-06T13:48:37;27.98;;;13.57;;
52508;SDS011;38420;53.150;6.370;2024-03-06T13:51:03;28.42;;;14.18;;
52508;SDS011;38420;53.150;6.370;2024-03-06T13:53:30;26.08;;;14.35;;
52508;SDS011;38420;53.150;6.370;2024-03-06T13:55:56;32.30;;;14.35;;
52508;SDS011;38420;53.150;6.370;2024-03-06T13:58:22;30.35;;;14.60;;
52508;SDS011;38420;53.150;6.370;2024-03-06T14:00:47;33.53;;;15.48;;
52508;SDS011;38420;53.150;6.370;2024-03-06T14:03:13;28.20;;;14.30;;
52508;SDS011;38420;53.150;6.370;2024-03-06T14:05:39;26.13;;;13.63;;
52508;SDS011;38420;53.150;6.370;2024-03-06T14:08:05;33.60;;;14.18;;
52508;SDS011;38420;53.150;6.370;2024-03-06T14:10:31;32.78;;;15.77;;
52508;SDS011;38420;53.150;6.370;2024-03-06T14:13:03;34.00;;;15.95;;
52508;SDS011;38420;53.150;6.370;2024-03-06T14:15:30;34.15;;;15.35;;
52508;SDS011;38420;53.150;6.370;2024-03-06T14:17:55;33.08;;;14.70;;
52508;SDS011;38420;53.150;6.370;2024-03-06T14:20:21;33.67;;;16.65;;
52508;SDS011;38420;53.150;6.370;2024-03-06T14:22:48;32.67;;;15.23;;
52508;SDS011;38420;53.150;6.370;2024-03-06T14:25:14;27.02;;;13.80;;
52508;SDS011;38420;53.150;6.370;2024-03-06T14:27:41;33.15;;;14.45;;
52508;SDS011;38420;53.150;6.370;2024-03-06T14:30:06;30.48;;;14.82;;
52508;SDS011;38420;53.150;6.370;2024-03-06T14:32:33;31.52;;;14.52;;
52508;SDS011;38420;53.150;6.370;2024-03-06T14:34:59;35.22;;;16.58;;
52508;SDS011;38420;53.150;6.370;2024-03-06T14:37:24;39.50;;;17.63;;
52508;SDS011;38420;53.150;6.370;2024-03-06T14:39:50;29.38;;;14.30;;
52508;SDS011;38420;53.150;6.370;2024-03-06T14:42:19;34.10;;;16.95;;